sensor_id;sensor_type;location;lat;lon;timestamp;temperature;humidity
8220;DHT22;4151;51.110;7.020;2022-11-03T00:00:45;11.10;99.90
8220;DHT22;4151;51.110;7.020;2022-11-03T00:03:11;11.20;99.90
8220;DHT22;4151;51.110;7.020;2022-11-03T00:05:36;11.30;99.90
8220;DHT22;4151;51.110;7.020;2022-11-03T00:08:20;11.30;99.90
8220;DHT22;4151;51.110;7.020;2022-11-03T00:10:46;11.40;99.90
8220;DHT22;4151;51.110;7.020;2022-11-03T00:13:12;11.40;99.90
8220;DHT22;4151;51.110;7.020;2022-11-03T00:15:47;11.40;99.90
8220;DHT22;4151;51.110;7.020;2022-11-03T00:18:12;11.40;99.90
8220;DHT22;4151;51.110;7.020;2022-11-03T00:20:38;11.40;99.90
8220;DHT22;4151;51.110;7.020;2022-11-03T00:23:03;11.50;99.90
8220;DHT22;4151;51.110;7.020;2022-11-03T00:25:29;11.50;99.90
8220;DHT22;4151;51.110;7.020;2022-11-03T00:27:54;11.50;99.90
8220;DHT22;4151;51.110;7.020;2022-11-03T00:30:21;11.50;99.90
8220;DHT22;4151;51.110;7.020;2022-11-03T00:32:46;11.50;99.90
8220;DHT22;4151;51.110;7.020;2022-11-03T00:35:12;11.50;99.90
8220;DHT22;4151;51.110;7.020;2022-11-03T00:37:37;11.50;99.90
8220;DHT22;4151;51.110;7.020;2022-11-03T00:40:03;11.50;99.90
8220;DHT22;4151;51.110;7.020;2022-11-03T00:42:29;11.50;99.90
8220;DHT22;4151;51.110;7.020;2022-11-03T00:44:54;11.40;99.90
8220;DHT22;4151;51.110;7.020;2022-11-03T00:47:20;11.40;99.90
8220;DHT22;4151;51.110;7.020;2022-11-03T00:49:45;11.50;99.90
8220;DHT22;4151;51.110;7.020;2022-11-03T00:52:11;11.50;99.90
8220;DHT22;4151;51.110;7.020;2022-11-03T00:54:36;11.40;99.90
8220;DHT22;4151;51.110;7.020;2022-11-03T00:57:02;11.40;99.90
8220;DHT22;4151;51.110;7.020;2022-11-03T00:59:27;11.40;99.90
8220;DHT22;4151;51.110;7.020;2022-11-03T01:01:53;11.40;99.90
8220;DHT22;4151;51.110;7.020;2022-11-03T01:04:18;11.40;99.90
8220;DHT22;4151;51.110;7.020;2022-11-03T01:07:04;11.40;99.90
8220;DHT22;4151;51.110;7.020;2022-11-03T01:09:40;11.40;99.90
8220;DHT22;4151;51.110;7.020;2022-11-03T01:12:13;11.40;99.90
8220;DHT22;4151;51.110;7.020;2022-11-03T01:14:48;11.40;99.90
8220;DHT22;4151;51.110;7.020;2022-11-03T01:17:19;11.40;99.90
8220;DHT22;4151;51.110;7.020;2022-11-03T01:19:46;11.40;99.90
8220;DHT22;4151;51.110;7.020;2022-11-03T01:22:12;11.40;99.90
8220;DHT22;4151;51.110;7.020;2022-11-03T01:24:39;11.40;99.90
8220;DHT22;4151;51.110;7.020;2022-11-03T01:27:09;11.40;99.90
8220;DHT22;4151;51.110;7.020;2022-11-03T01:29:35;11.40;99.90
8220;DHT22;4151;51.110;7.020;2022-11-03T01:32:01;11.40;99.90
8220;DHT22;4151;51.110;7.020;2022-11-03T01:34:26;11.30;99.90
8220;DHT22;4151;51.110;7.020;2022-11-03T01:36:52;11.40;99.90
8220;DHT22;4151;51.110;7.020;2022-11-03T01:39:18;11.30;99.90
8220;DHT22;4151;51.110;7.020;2022-11-03T01:41:46;11.30;99.90
8220;DHT22;4151;51.110;7.020;2022-11-03T01:46:48;11.30;99.90
8220;DHT22;4151;51.110;7.020;2022-11-03T01:52:37;11.30;99.90
8220;DHT22;4151;51.110;7.020;2022-11-03T01:54:58;11.30;99.90
8220;DHT22;4151;51.110;7.020;2022-11-03T01:57:29;11.30;99.90
8220;DHT22;4151;51.110;7.020;2022-11-03T01:59:58;11.30;99.90
8220;DHT22;4151;51.110;7.020;2022-11-03T02:02:25;11.30;99.90
8220;DHT22;4151;51.110;7.020;2022-11-03T02:04:52;11.30;99.90
8220;DHT22;4151;51.110;7.020;2022-11-03T02:07:25;11.30;99.90
8220;DHT22;4151;51.110;7.020;2022-11-03T02:09:53;11.30;99.90
8220;DHT22;4151;51.110;7.020;2022-11-03T02:12:20;11.30;99.90
8220;DHT22;4151;51.110;7.020;2022-11-03T02:14:53;11.30;99.90
8220;DHT22;4151;51.110;7.020;2022-11-03T02:17:20;11.20;99.90
8220;DHT22;4151;51.110;7.020;2022-11-03T02:19:51;11.20;99.90
8220;DHT22;4151;51.110;7.020;2022-11-03T02:22:34;11.20;99.90
8220;DHT22;4151;51.110;7.020;2022-11-03T02:27:38;11.20;99.90
8220;DHT22;4151;51.110;7.020;2022-11-03T02:30:04;11.10;99.90
8220;DHT22;4151;51.110;7.020;2022-11-03T02:33:03;11.10;99.90
8220;DHT22;4151;51.110;7.020;2022-11-03T02:35:50;11.10;99.90
8220;DHT22;4151;51.110;7.020;2022-11-03T02:38:14;11.10;99.90
8220;DHT22;4151;51.110;7.020;2022-11-03T02:40:46;11.10;99.90
8220;DHT22;4151;51.110;7.020;2022-11-03T02:43:14;11.10;99.90
8220;DHT22;4151;51.110;7.020;2022-11-03T02:45:42;11.10;99.90
8220;DHT22;4151;51.110;7.020;2022-11-03T02:48:14;11.20;99.90
8220;DHT22;4151;51.110;7.020;2022-11-03T02:50:40;11.20;99.90
8220;DHT22;4151;51.110;7.020;2022-11-03T02:53:08;11.20;99.90
8220;DHT22;4151;51.110;7.020;2022-11-03T02:55:43;11.20;99.90
8220;DHT22;4151;51.110;7.020;2022-11-03T02:58:27;11.30;99.90
8220;DHT22;4151;51.110;7.020;2022-11-03T03:01:05;11.30;99.90
8220;DHT22;4151;51.110;7.020;2022-11-03T03:03:41;11.30;99.90
8220;DHT22;4151;51.110;7.020;2022-11-03T03:06:12;11.30;99.90
8220;DHT22;4151;51.110;7.020;2022-11-03T03:08:43;11.30;99.90
8220;DHT22;4151;51.110;7.020;2022-11-03T03:11:13;11.30;99.90
8220;DHT22;4151;51.110;7.020;2022-11-03T03:13:42;11.30;99.90
8220;DHT22;4151;51.110;7.020;2022-11-03T03:16:17;11.30;99.90
8220;DHT22;4151;51.110;7.020;2022-11-03T03:21:41;11.20;99.90
8220;DHT22;4151;51.110;7.020;2022-11-03T03:24:20;11.20;99.90
8220;DHT22;4151;51.110;7.020;2022-11-03T03:26:48;11.20;99.90
8220;DHT22;4151;51.110;7.020;2022-11-03T03:29:21;11.10;99.90
8220;DHT22;4151;51.110;7.020;2022-11-03T03:31:56;11.10;99.90
8220;DHT22;4151;51.110;7.020;2022-11-03T03:34:24;11.10;99.90
8220;DHT22;4151;51.110;7.020;2022-11-03T03:36:52;11.00;99.90
8220;DHT22;4151;51.110;7.020;2022-11-03T03:39:21;11.00;99.90
8220;DHT22;4151;51.110;7.020;2022-11-03T03:41:50;11.00;99.90
8220;DHT22;4151;51.110;7.020;2022-11-03T03:44:16;11.00;99.90
8220;DHT22;4151;51.110;7.020;2022-11-03T03:46:46;11.00;99.90
8220;DHT22;4151;51.110;7.020;2022-11-03T03:49:13;10.90;99.90
8220;DHT22;4151;51.110;7.020;2022-11-03T03:51:40;10.90;99.90
8220;DHT22;4151;51.110;7.020;2022-11-03T03:54:06;10.90;99.90
8220;DHT22;4151;51.110;7.020;2022-11-03T03:56:32;10.90;99.90
8220;DHT22;4151;51.110;7.020;2022-11-03T03:58:59;10.90;99.90
8220;DHT22;4151;51.110;7.020;2022-11-03T04:01:24;10.80;99.90
8220;DHT22;4151;51.110;7.020;2022-11-03T04:03:50;10.90;99.90
8220;DHT22;4151;51.110;7.020;2022-11-03T04:06:15;10.90;99.90
8220;DHT22;4151;51.110;7.020;2022-11-03T04:08:41;10.90;99.90
8220;DHT22;4151;51.110;7.020;2022-11-03T04:11:06;10.90;99.90
8220;DHT22;4151;51.110;7.020;2022-11-03T04:13:50;10.90;99.90
8220;DHT22;4151;51.110;7.020;2022-11-03T04:16:34;11.00;99.90
8220;DHT22;4151;51.110;7.020;2022-11-03T04:19:18;11.00;99.90
8220;DHT22;4151;51.110;7.020;2022-11-03T04:22:02;10.90;99.90
8220;DHT22;4151;51.110;7.020;2022-11-03T04:24:47;10.90;99.90
8220;DHT22;4151;51.110;7.020;2022-11-03T04:27:33;10.90;99.90
8220;DHT22;4151;51.110;7.020;2022-11-03T04:30:06;10.90;99.90
8220;DHT22;4151;51.110;7.020;2022-11-03T04:32:32;10.90;99.90
8220;DHT22;4151;51.110;7.020;2022-11-03T04:34:58;10.90;99.90
8220;DHT22;4151;51.110;7.020;2022-11-03T04:37:27;11.00;99.90
8220;DHT22;4151;51.110;7.020;2022-11-03T04:39:58;10.90;99.90
8220;DHT22;4151;51.110;7.020;2022-11-03T04:42:25;11.00;99.90
8220;DHT22;4151;51.110;7.020;2022-11-03T04:44:51;11.00;99.90
8220;DHT22;4151;51.110;7.020;2022-11-03T04:47:17;11.00;99.90
8220;DHT22;4151;51.110;7.020;2022-11-03T04:49:46;11.00;99.90
8220;DHT22;4151;51.110;7.020;2022-11-03T04:52:17;11.00;99.90
8220;DHT22;4151;51.110;7.020;2022-11-03T04:54:44;11.00;99.90
8220;DHT22;4151;51.110;7.020;2022-11-03T04:57:12;11.00;99.90
8220;DHT22;4151;51.110;7.020;2022-11-03T04:59:42;11.00;99.90
8220;DHT22;4151;51.110;7.020;2022-11-03T05:02:15;11.10;99.90
8220;DHT22;4151;51.110;7.020;2022-11-03T05:04:41;11.20;99.90
8220;DHT22;4151;51.110;7.020;2022-11-03T05:07:25;11.30;99.90
8220;DHT22;4151;51.110;7.020;2022-11-03T05:09:52;11.30;99.90
8220;DHT22;4151;51.110;7.020;2022-11-03T05:12:18;11.30;99.90
8220;DHT22;4151;51.110;7.020;2022-11-03T05:14:44;11.40;99.90
8220;DHT22;4151;51.110;7.020;2022-11-03T05:17:26;11.40;99.90
8220;DHT22;4151;51.110;7.020;2022-11-03T05:20:00;11.40;99.90
8220;DHT22;4151;51.110;7.020;2022-11-03T05:22:32;11.50;99.90
8220;DHT22;4151;51.110;7.020;2022-11-03T05:25:02;11.50;99.90
8220;DHT22;4151;51.110;7.020;2022-11-03T05:27:28;11.50;99.90
8220;DHT22;4151;51.110;7.020;2022-11-03T05:29:56;11.50;99.90
8220;DHT22;4151;51.110;7.020;2022-11-03T05:32:26;11.50;99.90
8220;DHT22;4151;51.110;7.020;2022-11-03T05:34:54;11.50;99.90
8220;DHT22;4151;51.110;7.020;2022-11-03T05:39:51;11.50;99.90
8220;DHT22;4151;51.110;7.020;2022-11-03T05:42:35;11.40;99.90
8220;DHT22;4151;51.110;7.020;2022-11-03T05:45:11;11.40;99.90
8220;DHT22;4151;51.110;7.020;2022-11-03T05:47:40;11.40;99.90
8220;DHT22;4151;51.110;7.020;2022-11-03T05:50:19;11.40;99.90
8220;DHT22;4151;51.110;7.020;2022-11-03T05:52:46;11.40;99.90
8220;DHT22;4151;51.110;7.020;2022-11-03T05:55:26;11.50;99.90
8220;DHT22;4151;51.110;7.020;2022-11-03T05:57:55;11.50;99.90
8220;DHT22;4151;51.110;7.020;2022-11-03T06:00:28;11.50;99.90
8220;DHT22;4151;51.110;7.020;2022-11-03T06:02:53;11.60;99.90
8220;DHT22;4151;51.110;7.020;2022-11-03T06:05:22;11.60;99.90
8220;DHT22;4151;51.110;7.020;2022-11-03T06:07:48;11.70;99.90
8220;DHT22;4151;51.110;7.020;2022-11-03T06:10:33;11.70;99.90
8220;DHT22;4151;51.110;7.020;2022-11-03T06:13:36;11.70;99.90
8220;DHT22;4151;51.110;7.020;2022-11-03T06:18:50;11.80;99.90
8220;DHT22;4151;51.110;7.020;2022-11-03T06:21:21;11.70;99.90
8220;DHT22;4151;51.110;7.020;2022-11-03T06:23:48;11.70;99.90
8220;DHT22;4151;51.110;7.020;2022-11-03T06:26:20;11.70;99.90
8220;DHT22;4151;51.110;7.020;2022-11-03T06:28:47;11.70;99.90
8220;DHT22;4151;51.110;7.020;2022-11-03T06:31:19;11.70;99.90
8220;DHT22;4151;51.110;7.020;2022-11-03T06:33:45;11.60;99.90
8220;DHT22;4151;51.110;7.020;2022-11-03T06:36:40;11.60;99.90
8220;DHT22;4151;51.110;7.020;2022-11-03T06:39:21;11.50;99.90
8220;DHT22;4151;51.110;7.020;2022-11-03T06:41:47;11.50;99.90
8220;DHT22;4151;51.110;7.020;2022-11-03T06:44:26;11.40;99.90
8220;DHT22;4151;51.110;7.020;2022-11-03T06:47:00;11.40;99.90
8220;DHT22;4151;51.110;7.020;2022-11-03T06:49:32;11.40;99.90
8220;DHT22;4151;51.110;7.020;2022-11-03T06:52:00;11.30;99.90
8220;DHT22;4151;51.110;7.020;2022-11-03T06:54:27;11.30;99.90
8220;DHT22;4151;51.110;7.020;2022-11-03T06:56:52;11.20;99.90
8220;DHT22;4151;51.110;7.020;2022-11-03T06:59:18;11.20;99.90
8220;DHT22;4151;51.110;7.020;2022-11-03T07:01:46;11.20;99.90
8220;DHT22;4151;51.110;7.020;2022-11-03T07:04:21;11.20;99.90
8220;DHT22;4151;51.110;7.020;2022-11-03T07:06:48;11.20;99.90
8220;DHT22;4151;51.110;7.020;2022-11-03T07:09:19;11.20;99.90
8220;DHT22;4151;51.110;7.020;2022-11-03T07:11:50;11.20;99.90
8220;DHT22;4151;51.110;7.020;2022-11-03T07:14:26;11.20;99.90
8220;DHT22;4151;51.110;7.020;2022-11-03T07:16:55;11.20;99.90
8220;DHT22;4151;51.110;7.020;2022-11-03T07:19:29;11.10;99.90
8220;DHT22;4151;51.110;7.020;2022-11-03T07:21:59;11.20;99.90
8220;DHT22;4151;51.110;7.020;2022-11-03T07:24:39;11.20;99.90
8220;DHT22;4151;51.110;7.020;2022-11-03T07:29:38;11.30;99.90
8220;DHT22;4151;51.110;7.020;2022-11-03T07:32:10;11.30;99.90
8220;DHT22;4151;51.110;7.020;2022-11-03T07:34:38;11.40;99.90
8220;DHT22;4151;51.110;7.020;2022-11-03T07:37:03;11.50;99.90
8220;DHT22;4151;51.110;7.020;2022-11-03T07:39:34;11.60;99.90
8220;DHT22;4151;51.110;7.020;2022-11-03T07:42:25;11.70;99.90
8220;DHT22;4151;51.110;7.020;2022-11-03T07:44:51;11.80;99.90
8220;DHT22;4151;51.110;7.020;2022-11-03T07:47:22;11.90;99.90
8220;DHT22;4151;51.110;7.020;2022-11-03T07:49:53;12.00;99.90
8220;DHT22;4151;51.110;7.020;2022-11-03T07:52:22;12.10;99.90
8220;DHT22;4151;51.110;7.020;2022-11-03T07:54:49;12.10;99.90
8220;DHT22;4151;51.110;7.020;2022-11-03T07:57:23;12.20;99.90
8220;DHT22;4151;51.110;7.020;2022-11-03T07:59:52;12.30;99.90
8220;DHT22;4151;51.110;7.020;2022-11-03T08:02:32;12.40;99.90
8220;DHT22;4151;51.110;7.020;2022-11-03T08:04:59;12.50;99.90
8220;DHT22;4151;51.110;7.020;2022-11-03T08:07:25;12.50;99.90
8220;DHT22;4151;51.110;7.020;2022-11-03T08:09:54;12.60;99.90
8220;DHT22;4151;51.110;7.020;2022-11-03T08:12:20;12.70;99.90
8220;DHT22;4151;51.110;7.020;2022-11-03T08:14:46;12.80;99.90
8220;DHT22;4151;51.110;7.020;2022-11-03T08:17:11;12.90;99.90
8220;DHT22;4151;51.110;7.020;2022-11-03T08:19:38;12.90;99.90
8220;DHT22;4151;51.110;7.020;2022-11-03T08:22:04;13.00;99.90
8220;DHT22;4151;51.110;7.020;2022-11-03T08:24:29;13.00;99.90
8220;DHT22;4151;51.110;7.020;2022-11-03T08:26:55;13.20;99.90
8220;DHT22;4151;51.110;7.020;2022-11-03T08:29:20;13.20;99.90
8220;DHT22;4151;51.110;7.020;2022-11-03T08:31:46;13.10;99.90
8220;DHT22;4151;51.110;7.020;2022-11-03T08:34:12;13.10;99.90
8220;DHT22;4151;51.110;7.020;2022-11-03T08:36:37;13.10;99.90
8220;DHT22;4151;51.110;7.020;2022-11-03T08:39:03;13.20;99.90
8220;DHT22;4151;51.110;7.020;2022-11-03T08:41:29;13.20;99.90
8220;DHT22;4151;51.110;7.020;2022-11-03T08:43:55;13.20;99.90
8220;DHT22;4151;51.110;7.020;2022-11-03T08:46:21;13.20;99.90
8220;DHT22;4151;51.110;7.020;2022-11-03T08:48:46;13.30;99.90
8220;DHT22;4151;51.110;7.020;2022-11-03T08:51:13;13.30;99.90
8220;DHT22;4151;51.110;7.020;2022-11-03T08:53:40;13.40;99.90
8220;DHT22;4151;51.110;7.020;2022-11-03T08:56:08;13.50;99.90
8220;DHT22;4151;51.110;7.020;2022-11-03T08:58:34;13.60;99.90
8220;DHT22;4151;51.110;7.020;2022-11-03T09:01:00;13.60;99.90
8220;DHT22;4151;51.110;7.020;2022-11-03T09:03:25;13.70;99.90
8220;DHT22;4151;51.110;7.020;2022-11-03T09:05:51;13.70;99.90
8220;DHT22;4151;51.110;7.020;2022-11-03T09:08:17;13.80;99.90
8220;DHT22;4151;51.110;7.020;2022-11-03T09:10:43;14.10;99.90
8220;DHT22;4151;51.110;7.020;2022-11-03T09:13:09;14.30;99.90
8220;DHT22;4151;51.110;7.020;2022-11-03T09:15:35;14.40;99.90
8220;DHT22;4151;51.110;7.020;2022-11-03T09:18:01;14.40;99.90
8220;DHT22;4151;51.110;7.020;2022-11-03T09:20:26;14.30;99.90
8220;DHT22;4151;51.110;7.020;2022-11-03T09:22:52;14.30;99.90
8220;DHT22;4151;51.110;7.020;2022-11-03T09:25:18;14.30;99.90
8220;DHT22;4151;51.110;7.020;2022-11-03T09:27:44;14.30;99.90
8220;DHT22;4151;51.110;7.020;2022-11-03T09:30:10;14.40;99.90
8220;DHT22;4151;51.110;7.020;2022-11-03T09:32:36;14.30;99.90
8220;DHT22;4151;51.110;7.020;2022-11-03T09:35:02;14.40;99.90
8220;DHT22;4151;51.110;7.020;2022-11-03T09:37:28;14.50;99.90
8220;DHT22;4151;51.110;7.020;2022-11-03T09:39:53;14.60;99.90
8220;DHT22;4151;51.110;7.020;2022-11-03T09:42:19;14.60;99.90
8220;DHT22;4151;51.110;7.020;2022-11-03T09:44:46;14.60;99.90
8220;DHT22;4151;51.110;7.020;2022-11-03T09:47:38;14.80;99.90
8220;DHT22;4151;51.110;7.020;2022-11-03T09:50:05;15.20;99.90
8220;DHT22;4151;51.110;7.020;2022-11-03T09:52:31;15.30;99.90
8220;DHT22;4151;51.110;7.020;2022-11-03T09:54:57;15.60;99.90
8220;DHT22;4151;51.110;7.020;2022-11-03T09:57:26;15.80;99.90
8220;DHT22;4151;51.110;7.020;2022-11-03T09:59:52;15.80;99.90
8220;DHT22;4151;51.110;7.020;2022-11-03T10:02:28;15.60;99.90
8220;DHT22;4151;51.110;7.020;2022-11-03T10:04:57;15.50;99.90
8220;DHT22;4151;51.110;7.020;2022-11-03T10:07:25;15.50;99.90
8220;DHT22;4151;51.110;7.020;2022-11-03T10:09:52;15.40;99.90
8220;DHT22;4151;51.110;7.020;2022-11-03T10:18:53;15.00;99.90
8220;DHT22;4151;51.110;7.020;2022-11-03T10:21:27;15.00;99.90
8220;DHT22;4151;51.110;7.020;2022-11-03T10:23:54;14.90;99.90
8220;DHT22;4151;51.110;7.020;2022-11-03T10:26:20;14.90;99.90
8220;DHT22;4151;51.110;7.020;2022-11-03T10:29:03;14.90;99.90
8220;DHT22;4151;51.110;7.020;2022-11-03T10:31:33;14.90;99.90
8220;DHT22;4151;51.110;7.020;2022-11-03T10:33:59;14.90;99.90
8220;DHT22;4151;51.110;7.020;2022-11-03T10:36:26;14.90;99.90
8220;DHT22;4151;51.110;7.020;2022-11-03T10:38:53;15.00;99.90
8220;DHT22;4151;51.110;7.020;2022-11-03T10:41:29;15.10;99.90
8220;DHT22;4151;51.110;7.020;2022-11-03T10:46:55;14.90;99.90
8220;DHT22;4151;51.110;7.020;2022-11-03T10:49:21;14.80;99.90
8220;DHT22;4151;51.110;7.020;2022-11-03T10:51:49;14.70;99.90
8220;DHT22;4151;51.110;7.020;2022-11-03T10:54:16;14.70;99.90
8220;DHT22;4151;51.110;7.020;2022-11-03T10:56:43;14.70;99.90
8220;DHT22;4151;51.110;7.020;2022-11-03T10:59:16;14.60;99.90
8220;DHT22;4151;51.110;7.020;2022-11-03T11:01:42;14.70;99.90
8220;DHT22;4151;51.110;7.020;2022-11-03T11:04:11;14.60;99.90
8220;DHT22;4151;51.110;7.020;2022-11-03T11:06:39;14.60;99.90
8220;DHT22;4151;51.110;7.020;2022-11-03T11:09:05;14.60;99.90
8220;DHT22;4151;51.110;7.020;2022-11-03T11:11:34;14.60;99.90
8220;DHT22;4151;51.110;7.020;2022-11-03T11:14:31;14.50;99.90
8220;DHT22;4151;51.110;7.020;2022-11-03T11:17:00;14.50;99.90
8220;DHT22;4151;51.110;7.020;2022-11-03T11:19:29;14.40;99.90
8220;DHT22;4151;51.110;7.020;2022-11-03T11:24:59;14.50;99.90
8220;DHT22;4151;51.110;7.020;2022-11-03T11:29:59;14.50;99.90
8220;DHT22;4151;51.110;7.020;2022-11-03T11:35:05;14.60;99.90
8220;DHT22;4151;51.110;7.020;2022-11-03T11:37:33;14.60;99.90
8220;DHT22;4151;51.110;7.020;2022-11-03T11:39:59;14.70;99.90
8220;DHT22;4151;51.110;7.020;2022-11-03T11:42:24;14.70;99.90
8220;DHT22;4151;51.110;7.020;2022-11-03T11:44:52;14.70;99.90
8220;DHT22;4151;51.110;7.020;2022-11-03T11:52:45;14.70;99.90
8220;DHT22;4151;51.110;7.020;2022-11-03T11:55:23;14.60;99.90
8220;DHT22;4151;51.110;7.020;2022-11-03T11:57:50;14.50;99.90
8220;DHT22;4151;51.110;7.020;2022-11-03T12:00:22;14.50;99.90
8220;DHT22;4151;51.110;7.020;2022-11-03T12:02:49;14.40;99.90
8220;DHT22;4151;51.110;7.020;2022-11-03T12:05:34;14.40;99.90
8220;DHT22;4151;51.110;7.020;2022-11-03T12:08:00;14.40;99.90
8220;DHT22;4151;51.110;7.020;2022-11-03T12:10:30;14.40;99.90
8220;DHT22;4151;51.110;7.020;2022-11-03T12:12:57;14.30;99.90
8220;DHT22;4151;51.110;7.020;2022-11-03T12:15:49;14.40;99.90
8220;DHT22;4151;51.110;7.020;2022-11-03T12:18:34;14.30;99.90
8220;DHT22;4151;51.110;7.020;2022-11-03T12:21:02;14.20;99.90
8220;DHT22;4151;51.110;7.020;2022-11-03T12:23:35;14.30;99.90
8220;DHT22;4151;51.110;7.020;2022-11-03T12:26:04;14.30;99.90
8220;DHT22;4151;51.110;7.020;2022-11-03T12:28:34;14.40;99.90
8220;DHT22;4151;51.110;7.020;2022-11-03T12:31:00;14.40;99.90
8220;DHT22;4151;51.110;7.020;2022-11-03T12:33:26;14.40;99.90
8220;DHT22;4151;51.110;7.020;2022-11-03T12:35:52;14.50;99.90
8220;DHT22;4151;51.110;7.020;2022-11-03T12:38:18;14.50;99.90
8220;DHT22;4151;51.110;7.020;2022-11-03T12:40:44;14.50;99.90
8220;DHT22;4151;51.110;7.020;2022-11-03T12:43:09;14.40;99.90
8220;DHT22;4151;51.110;7.020;2022-11-03T12:45:35;14.40;99.90
8220;DHT22;4151;51.110;7.020;2022-11-03T12:48:00;14.30;99.90
8220;DHT22;4151;51.110;7.020;2022-11-03T12:50:26;14.30;99.90
8220;DHT22;4151;51.110;7.020;2022-11-03T12:52:51;14.40;99.90
8220;DHT22;4151;51.110;7.020;2022-11-03T12:55:17;14.40;99.90
8220;DHT22;4151;51.110;7.020;2022-11-03T12:57:43;14.30;99.90
8220;DHT22;4151;51.110;7.020;2022-11-03T13:00:11;14.20;99.90
8220;DHT22;4151;51.110;7.020;2022-11-03T13:02:37;14.20;99.90
8220;DHT22;4151;51.110;7.020;2022-11-03T13:05:04;14.10;99.90
8220;DHT22;4151;51.110;7.020;2022-11-03T13:07:29;14.10;99.90
8220;DHT22;4151;51.110;7.020;2022-11-03T13:09:55;14.10;99.90
8220;DHT22;4151;51.110;7.020;2022-11-03T13:12:20;14.00;99.90
8220;DHT22;4151;51.110;7.020;2022-11-03T13:15:05;14.00;99.90
8220;DHT22;4151;51.110;7.020;2022-11-03T13:17:30;14.00;99.90
8220;DHT22;4151;51.110;7.020;2022-11-03T13:19:56;14.00;99.90
8220;DHT22;4151;51.110;7.020;2022-11-03T13:22:22;13.90;99.90
8220;DHT22;4151;51.110;7.020;2022-11-03T13:39:12;13.90;99.90
8220;DHT22;4151;51.110;7.020;2022-11-03T13:41:37;14.00;99.90
8220;DHT22;4151;51.110;7.020;2022-11-03T13:44:03;13.90;99.90
8220;DHT22;4151;51.110;7.020;2022-11-03T13:46:28;13.90;99.90
8220;DHT22;4151;51.110;7.020;2022-11-03T13:48:54;13.90;99.90
8220;DHT22;4151;51.110;7.020;2022-11-03T13:51:19;13.90;99.90
8220;DHT22;4151;51.110;7.020;2022-11-03T13:53:45;13.90;99.90
8220;DHT22;4151;51.110;7.020;2022-11-03T13:56:12;13.90;99.90
8220;DHT22;4151;51.110;7.020;2022-11-03T13:58:37;13.90;99.90
8220;DHT22;4151;51.110;7.020;2022-11-03T14:01:03;13.80;99.90
8220;DHT22;4151;51.110;7.020;2022-11-03T14:03:29;13.80;99.90
8220;DHT22;4151;51.110;7.020;2022-11-03T14:05:54;13.70;99.90
8220;DHT22;4151;51.110;7.020;2022-11-03T14:08:20;13.60;99.90
8220;DHT22;4151;51.110;7.020;2022-11-03T14:10:46;13.60;99.90
8220;DHT22;4151;51.110;7.020;2022-11-03T14:13:11;13.60;99.90
8220;DHT22;4151;51.110;7.020;2022-11-03T14:15:37;13.60;99.90
8220;DHT22;4151;51.110;7.020;2022-11-03T14:18:03;13.60;99.90
8220;DHT22;4151;51.110;7.020;2022-11-03T14:20:28;13.60;99.90
8220;DHT22;4151;51.110;7.020;2022-11-03T14:22:54;13.60;99.90
8220;DHT22;4151;51.110;7.020;2022-11-03T14:25:19;13.60;99.90
8220;DHT22;4151;51.110;7.020;2022-11-03T14:27:45;13.60;99.90
8220;DHT22;4151;51.110;7.020;2022-11-03T14:30:11;13.50;99.90
8220;DHT22;4151;51.110;7.020;2022-11-03T14:32:37;13.60;99.90
8220;DHT22;4151;51.110;7.020;2022-11-03T14:35:03;13.50;99.90
8220;DHT22;4151;51.110;7.020;2022-11-03T14:37:29;13.50;99.90
8220;DHT22;4151;51.110;7.020;2022-11-03T14:39:54;13.50;99.90
8220;DHT22;4151;51.110;7.020;2022-11-03T14:42:20;13.50;99.90
8220;DHT22;4151;51.110;7.020;2022-11-03T14:44:46;13.50;99.90
8220;DHT22;4151;51.110;7.020;2022-11-03T14:47:15;13.50;99.90
8220;DHT22;4151;51.110;7.020;2022-11-03T14:49:42;13.30;99.90
8220;DHT22;4151;51.110;7.020;2022-11-03T14:52:08;13.20;99.90
8220;DHT22;4151;51.110;7.020;2022-11-03T14:54:34;13.10;99.90
8220;DHT22;4151;51.110;7.020;2022-11-03T14:57:01;13.00;99.90
8220;DHT22;4151;51.110;7.020;2022-11-03T14:59:26;12.80;99.90
8220;DHT22;4151;51.110;7.020;2022-11-03T15:01:53;12.80;99.90
8220;DHT22;4151;51.110;7.020;2022-11-03T15:04:19;12.60;99.90
8220;DHT22;4151;51.110;7.020;2022-11-03T15:06:45;12.50;99.90
8220;DHT22;4151;51.110;7.020;2022-11-03T15:09:11;12.40;99.90
8220;DHT22;4151;51.110;7.020;2022-11-03T15:11:40;12.20;99.90
8220;DHT22;4151;51.110;7.020;2022-11-03T15:14:06;12.10;99.90
8220;DHT22;4151;51.110;7.020;2022-11-03T15:16:33;12.00;99.90
8220;DHT22;4151;51.110;7.020;2022-11-03T15:19:01;11.90;99.90
8220;DHT22;4151;51.110;7.020;2022-11-03T15:21:28;11.90;99.90
8220;DHT22;4151;51.110;7.020;2022-11-03T15:23:54;11.90;99.90
8220;DHT22;4151;51.110;7.020;2022-11-03T15:26:19;11.80;99.90
8220;DHT22;4151;51.110;7.020;2022-11-03T15:28:45;11.80;99.90
8220;DHT22;4151;51.110;7.020;2022-11-03T15:31:10;11.70;99.90
8220;DHT22;4151;51.110;7.020;2022-11-03T15:33:36;11.70;99.90
8220;DHT22;4151;51.110;7.020;2022-11-03T15:36:02;11.60;99.90
8220;DHT22;4151;51.110;7.020;2022-11-03T15:38:29;11.60;99.90
8220;DHT22;4151;51.110;7.020;2022-11-03T15:40:55;11.60;99.90
8220;DHT22;4151;51.110;7.020;2022-11-03T15:43:43;11.50;99.90
8220;DHT22;4151;51.110;7.020;2022-11-03T15:46:09;11.50;99.90
8220;DHT22;4151;51.110;7.020;2022-11-03T15:48:35;11.40;99.90
8220;DHT22;4151;51.110;7.020;2022-11-03T15:51:01;11.30;99.90
8220;DHT22;4151;51.110;7.020;2022-11-03T15:53:26;11.30;99.90
8220;DHT22;4151;51.110;7.020;2022-11-03T15:55:52;11.30;99.90
8220;DHT22;4151;51.110;7.020;2022-11-03T15:58:17;11.30;99.90
8220;DHT22;4151;51.110;7.020;2022-11-03T16:00:43;11.30;99.90
8220;DHT22;4151;51.110;7.020;2022-11-03T16:03:08;11.20;99.90
8220;DHT22;4151;51.110;7.020;2022-11-03T16:05:34;11.20;99.90
8220;DHT22;4151;51.110;7.020;2022-11-03T16:07:59;11.20;99.90
8220;DHT22;4151;51.110;7.020;2022-11-03T16:10:25;11.20;99.90
8220;DHT22;4151;51.110;7.020;2022-11-03T16:12:51;11.20;99.90
8220;DHT22;4151;51.110;7.020;2022-11-03T16:15:16;11.20;99.90
8220;DHT22;4151;51.110;7.020;2022-11-03T16:17:42;11.20;99.90
8220;DHT22;4151;51.110;7.020;2022-11-03T16:20:08;11.10;99.90
8220;DHT22;4151;51.110;7.020;2022-11-03T16:22:34;11.10;99.90
8220;DHT22;4151;51.110;7.020;2022-11-03T16:25:00;11.10;99.90
8220;DHT22;4151;51.110;7.020;2022-11-03T16:27:26;11.10;99.90
8220;DHT22;4151;51.110;7.020;2022-11-03T16:29:51;11.10;99.90
8220;DHT22;4151;51.110;7.020;2022-11-03T16:32:20;11.00;99.90
8220;DHT22;4151;51.110;7.020;2022-11-03T16:34:45;11.10;99.90
8220;DHT22;4151;51.110;7.020;2022-11-03T16:37:13;11.10;99.90
8220;DHT22;4151;51.110;7.020;2022-11-03T16:39:38;11.00;99.90
8220;DHT22;4151;51.110;7.020;2022-11-03T16:42:04;11.10;99.90
8220;DHT22;4151;51.110;7.020;2022-11-03T16:44:30;11.10;99.90
8220;DHT22;4151;51.110;7.020;2022-11-03T16:46:56;11.10;99.90
8220;DHT22;4151;51.110;7.020;2022-11-03T16:49:21;11.10;99.90
8220;DHT22;4151;51.110;7.020;2022-11-03T16:51:47;11.20;99.90
8220;DHT22;4151;51.110;7.020;2022-11-03T16:54:12;11.10;99.90
8220;DHT22;4151;51.110;7.020;2022-11-03T16:56:38;11.00;99.90
8220;DHT22;4151;51.110;7.020;2022-11-03T16:59:03;11.00;99.90
8220;DHT22;4151;51.110;7.020;2022-11-03T17:01:29;11.00;99.90
8220;DHT22;4151;51.110;7.020;2022-11-03T17:03:55;11.00;99.90
8220;DHT22;4151;51.110;7.020;2022-11-03T17:06:20;11.10;99.90
8220;DHT22;4151;51.110;7.020;2022-11-03T17:08:46;11.10;99.90